Time;durP1;ratioP1;P1;durP2;ratioP2;P2;SDS_P1;SDS_P2;PMS_P1;PMS_P2;Temp;Humidity;BMP_temperature;BMP_pressure;BME280_temperature;BME280_humidity;BME280_pressure;Samples;Min_cycle;Max_cycle;Signal;HPM_P1;HPM_P2
2023/09/27 00:01:55;;;;;;;4.22;2.33;;;20.00;99.90;;;;;;4897113;27;44737;-58
2023/09/27 00:04:56;;;;;;;3.60;2.30;;;20.00;99.90;;;;;;4951241;27;45764;-58
2023/09/27 00:07:25;;;;;;;4.18;2.40;;;19.90;99.90;;;;;;4886233;27;44785;-58
2023/09/27 00:09:54;;;;;;;3.45;2.17;;;19.80;99.90;;;;;;4906847;27;44889;-58
2023/09/27 00:12:22;;;;;;;10.40;2.40;;;19.80;99.90;;;;;;4912298;27;45248;-58
2023/09/27 00:14:49;;;;;;;6.13;2.25;;;19.80;99.90;;;;;;4885749;27;45155;-58
2023/09/27 00:17:19;;;;;;;3.85;2.10;;;19.70;99.90;;;;;;4899512;27;44763;-58
2023/09/27 00:20:09;;;;;;;3.38;2.40;;;19.70;99.90;;;;;;4927187;27;45161;-58
2023/09/27 00:22:39;;;;;;;3.33;2.20;;;19.60;99.90;;;;;;4910981;27;45154;-58
2023/09/27 00:25:24;;;;;;;3.25;2.22;;;19.50;99.90;;;;;;4907562;27;47076;-58
2023/09/27 00:27:51;;;;;;;4.45;2.40;;;19.50;99.90;;;;;;4886070;27;45138;-58
2023/09/27 00:30:19;;;;;;;4.90;2.10;;;19.40;99.90;;;;;;4923210;27;44954;-58
2023/09/27 00:32:47;;;;;;;3.15;2.00;;;19.50;99.90;;;;;;4911662;27;44945;-58
2023/09/27 00:35:19;;;;;;;5.10;2.72;;;19.40;99.90;;;;;;4909804;27;45894;-58
2023/09/27 00:43:44;;;;;;;4.15;2.20;;;19.00;99.90;;;;;;4880903;27;45104;-57
2023/09/27 00:46:16;;;;;;;4.75;2.53;;;19.00;99.90;;;;;;4906497;27;45987;-57
2023/09/27 00:48:45;;;;;;;4.32;2.45;;;18.90;99.90;;;;;;4896784;27;45360;-57
2023/09/27 00:51:29;;;;;;;3.15;2.47;;;19.00;99.90;;;;;;4881434;27;45065;-57
2023/09/27 00:53:59;;;;;;;6.85;2.17;;;18.90;99.90;;;;;;4912840;27;44819;-57
2023/09/27 00:56:28;;;;;;;11.80;2.72;;;18.90;99.90;;;;;;4925326;27;46580;-57
2023/09/27 00:58:57;;;;;;;4.63;2.47;;;18.90;99.90;;;;;;4917545;27;44707;-57
2023/09/27 01:01:38;;;;;;;6.90;2.67;;;18.80;99.90;;;;;;4908625;27;44782;-57
2023/09/27 01:04:05;;;;;;;4.28;2.78;;;18.80;99.90;;;;;;4881202;27;44883;-57
2023/09/27 01:07:00;;;;;;;7.70;2.00;;;18.80;99.90;;;;;;4950195;27;45756;-57
2023/09/27 01:09:46;;;;;;;6.13;2.20;;;18.80;99.90;;;;;;4920256;27;44717;-57
2023/09/27 01:12:13;;;;;;;5.30;2.30;;;18.80;99.90;;;;;;4903062;27;45209;-57
2023/09/27 01:14:42;;;;;;;4.45;2.60;;;18.80;99.90;;;;;;4908529;27;44930;-57
2023/09/27 01:17:22;;;;;;;3.65;2.40;;;18.90;99.90;;;;;;4924919;27;46462;-57
2023/09/27 01:19:49;;;;;;;6.25;3.00;;;18.90;99.90;;;;;;4898833;27;45391;-57
2023/09/27 01:22:16;;;;;;;8.48;2.88;;;18.90;99.90;;;;;;4874557;27;44878;-58
2023/09/27 01:25:07;;;;;;;7.15;3.50;;;18.90;99.90;;;;;;4892237;27;45044;-57
2023/09/27 01:27:35;;;;;;;8.90;2.97;;;19.00;99.90;;;;;;4883560;27;46511;-57
2023/09/27 01:32:45;;;;;;;4.10;2.40;;;18.80;99.90;;;;;;4887761;27;44802;-57
2023/09/27 01:35:13;;;;;;;5.47;2.75;;;18.70;99.90;;;;;;4936493;27;44791;-57
2023/09/27 01:37:42;;;;;;;5.28;3.22;;;18.60;99.90;;;;;;4881960;27;45331;-57
2023/09/27 01:40:22;;;;;;;4.95;3.03;;;18.60;99.90;;;;;;4927820;27;44747;-57
2023/09/27 01:42:51;;;;;;;5.68;2.97;;;18.60;99.90;;;;;;4910821;27;44730;-57
2023/09/27 01:45:35;;;;;;;4.15;2.80;;;18.70;99.90;;;;;;4946024;27;44636;-57
2023/09/27 01:50:46;;;;;;;8.35;2.65;;;18.80;99.90;;;;;;4884499;27;44846;-57
2023/09/27 01:53:14;;;;;;;9.18;3.05;;;18.80;99.90;;;;;;4872393;27;45211;-57
2023/09/27 01:55:52;;;;;;;6.25;3.25;;;18.80;99.90;;;;;;4938409;27;44802;-57
2023/09/27 01:58:32;;;;;;;5.55;2.85;;;18.70;99.90;;;;;;4891887;28;45202;-57
2023/09/27 02:01:11;;;;;;;5.78;3.00;;;18.60;99.90;;;;;;4903729;27;44643;-57
2023/09/27 02:03:40;;;;;;;6.70;2.78;;;18.60;99.90;;;;;;4892365;27;44771;-57
2023/09/27 02:06:07;;;;;;;6.55;3.75;;;18.60;99.90;;;;;;4894179;27;44910;-57
2023/09/27 02:08:41;;;;;;;6.22;2.85;;;18.60;99.90;;;;;;4889790;27;45490;-57
2023/09/27 02:11:16;;;;;;;8.07;2.58;;;18.60;99.90;;;;;;4917174;27;44754;-57
2023/09/27 02:13:47;;;;;;;8.07;2.58;;;18.50;99.90;;;;;;4942901;27;44811;-57
2023/09/27 02:16:16;;;;;;;4.07;2.40;;;18.40;99.90;;;;;;4928645;27;45028;-57
2023/09/27 02:18:45;;;;;;;3.78;2.35;;;18.40;99.90;;;;;;4915633;27;45959;-57
2023/09/27 02:21:13;;;;;;;6.32;2.95;;;18.40;99.90;;;;;;4912202;27;44918;-57
2023/09/27 02:23:55;;;;;;;5.15;2.50;;;18.50;99.90;;;;;;4902614;27;45019;-57
2023/09/27 02:26:37;;;;;;;4.50;2.42;;;18.70;99.90;;;;;;4910131;27;44774;-57
2023/09/27 02:29:14;;;;;;;5.28;2.53;;;18.80;99.90;;;;;;4942178;27;46519;-57
2023/09/27 02:31:54;;;;;;;3.60;2.17;;;18.90;99.90;;;;;;4925254;27;44647;-57
2023/09/27 02:34:24;;;;;;;3.30;2.38;;;18.80;99.90;;;;;;4912964;27;44729;-57
2023/09/27 02:36:54;;;;;;;3.80;2.50;;;18.70;99.90;;;;;;4914779;27;44868;-57
2023/09/27 02:39:32;;;;;;;5.18;2.55;;;18.70;99.90;;;;;;4905645;27;46418;-57
2023/09/27 02:42:16;;;;;;;4.75;2.20;;;18.70;99.90;;;;;;4932446;27;44745;-57
2023/09/27 02:44:43;;;;;;;4.05;2.50;;;18.90;99.90;;;;;;4902816;27;44733;-57
2023/09/27 02:47:12;;;;;;;5.07;3.05;;;18.70;99.90;;;;;;4954483;27;44769;-57
2023/09/27 02:49:42;;;;;;;5.75;2.55;;;18.50;99.90;;;;;;4927066;28;46165;-57
2023/09/27 02:52:17;;;;;;;4.40;2.60;;;18.50;99.90;;;;;;4903731;28;45061;-57
2023/09/27 02:55:28;;;;;;;5.90;2.40;;;18.30;99.90;;;;;;4913534;28;44911;-57
2023/09/27 02:57:57;;;;;;;4.75;2.63;;;18.20;99.90;;;;;;4873766;27;45013;-57
2023/09/27 03:00:27;;;;;;;6.80;2.60;;;18.10;99.90;;;;;;4926866;27;46457;-57
2023/09/27 03:02:56;;;;;;;9.02;2.72;;;18.00;99.90;;;;;;4901478;27;44983;-57
2023/09/27 03:05:25;;;;;;;7.50;2.53;;;18.00;99.90;;;;;;4906610;27;45363;-57
2023/09/27 03:08:21;;;;;;;4.32;2.28;;;18.10;99.90;;;;;;4951387;27;45001;-57
2023/09/27 03:10:50;;;;;;;9.32;2.58;;;18.30;99.90;;;;;;4913696;27;46263;-57
2023/09/27 03:13:20;;;;;;;3.22;2.25;;;18.40;99.90;;;;;;4901324;27;44792;-57
2023/09/27 03:15:56;;;;;;;6.45;2.80;;;18.40;99.90;;;;;;4911351;27;44801;-57
2023/09/27 03:18:26;;;;;;;5.40;2.42;;;18.50;99.90;;;;;;4930274;27;44791;-57
2023/09/27 03:21:06;;;;;;;5.45;2.30;;;18.50;99.90;;;;;;4887642;27;45360;-57
2023/09/27 03:23:33;;;;;;;5.18;2.58;;;18.50;99.90;;;;;;4902278;27;45412;-57
2023/09/27 03:26:16;;;;;;;5.03;2.88;;;18.50;99.90;;;;;;4946191;27;45107;-57
2023/09/27 03:28:46;;;;;;;4.05;2.50;;;18.50;99.90;;;;;;4908748;27;44946;-57
2023/09/27 03:31:14;;;;;;;5.97;2.55;;;18.60;99.90;;;;;;4918558;27;46117;-57
2023/09/27 03:33:52;;;;;;;5.70;2.70;;;18.50;99.90;;;;;;4899050;27;44725;-57
2023/09/27 03:36:45;;;;;;;2.83;2.42;;;18.50;99.90;;;;;;4948549;27;44961;-57
2023/09/27 03:39:35;;;;;;;5.75;2.70;;;18.50;99.90;;;;;;4906808;27;44847;-57
2023/09/27 03:42:03;;;;;;;6.97;2.90;;;18.50;99.90;;;;;;4876963;27;47268;-57
2023/09/27 03:44:33;;;;;;;4.35;2.72;;;18.30;99.90;;;;;;4887252;27;44762;-57
2023/09/27 03:47:11;;;;;;;5.13;2.67;;;18.40;99.90;;;;;;4907682;27;44787;-57
2023/09/27 03:50:12;;;;;;;3.85;2.60;;;18.50;99.90;;;;;;4925803;27;45046;-57
2023/09/27 03:52:55;;;;;;;5.05;2.70;;;18.40;99.80;;;;;;4902211;27;45674;-57
2023/09/27 03:55:29;;;;;;;5.65;2.65;;;18.30;99.90;;;;;;4945970;27;44680;-57
2023/09/27 03:58:04;;;;;;;4.13;2.88;;;18.40;99.90;;;;;;4902275;27;44679;-57
2023/09/27 04:00:34;;;;;;;5.03;2.92;;;18.30;99.90;;;;;;4916718;27;44767;-57
2023/09/27 04:03:13;;;;;;;7.90;2.85;;;18.30;99.90;;;;;;4926782;27;45668;-57
2023/09/27 04:06:11;;;;;;;3.95;2.90;;;18.40;99.90;;;;;;4969410;27;44772;-57
2023/09/27 04:08:39;;;;;;;3.10;2.50;;;18.30;99.90;;;;;;4916458;27;44823;-57
2023/09/27 04:11:24;;;;;;;4.80;2.60;;;18.30;99.90;;;;;;4957348;27;44956;-57
2023/09/27 04:13:53;;;;;;;3.47;2.70;;;18.30;99.90;;;;;;4918271;27;46156;-57
2023/09/27 04:16:26;;;;;;;6.00;2.75;;;18.40;99.90;;;;;;4934163;27;44884;-57
2023/09/27 04:19:00;;;;;;;3.65;3.28;;;18.50;99.90;;;;;;4904923;27;44897;-57
2023/09/27 04:21:28;;;;;;;4.57;3.17;;;18.50;99.80;;;;;;4907126;27;44926;-57
2023/09/27 04:24:12;;;;;;;5.47;3.35;;;18.50;99.80;;;;;;4902198;27;46371;-57
2023/09/27 04:26:42;;;;;;;5.28;3.15;;;18.40;99.70;;;;;;4939832;27;44732;-57
2023/09/27 04:29:22;;;;;;;7.28;3.63;;;18.40;99.90;;;;;;4883808;28;44790;-58
2023/09/27 04:31:57;;;;;;;10.27;4.35;;;18.40;99.90;;;;;;4894979;27;44769;-58
2023/09/27 04:34:31;;;;;;;9.63;3.35;;;18.30;99.70;;;;;;4936645;28;45949;-58
2023/09/27 04:37:08;;;;;;;5.78;3.53;;;18.30;99.90;;;;;;4901032;27;44797;-58
2023/09/27 04:39:51;;;;;;;4.93;3.33;;;18.30;99.90;;;;;;4889391;27;44687;-58
2023/09/27 04:42:18;;;;;;;3.45;2.25;;;18.40;99.90;;;;;;4891297;27;45307;-58
2023/09/27 04:44:47;;;;;;;6.72;4.00;;;18.70;99.90;;;;;;4920731;27;45973;-57
2023/09/27 04:47:24;;;;;;;4.25;3.60;;;18.50;99.00;;;;;;4903242;27;44909;-57
2023/09/27 04:50:08;;;;;;;8.10;3.92;;;18.50;99.10;;;;;;4913242;27;44836;-57
2023/09/27 04:52:37;;;;;;;4.45;3.67;;;18.30;99.60;;;;;;4920228;27;45223;-57
2023/09/27 04:55:29;;;;;;;3.92;3.15;;;18.20;99.90;;;;;;4911208;27;46040;-58
2023/09/27 04:57:56;;;;;;;5.45;3.50;;;18.30;99.90;;;;;;4899052;27;45104;-58
2023/09/27 05:00:24;;;;;;;7.20;4.20;;;18.30;99.40;;;;;;4902996;27;44830;-58
2023/09/27 05:03:02;;;;;;;11.70;3.53;;;18.20;99.50;;;;;;4890218;27;44955;-58
2023/09/27 05:05:30;;;;;;;6.25;4.53;;;18.10;99.90;;;;;;4889893;27;46611;-58
2023/09/27 05:08:07;;;;;;;5.75;3.80;;;18.10;99.90;;;;;;4924802;27;44807;-58
2023/09/27 05:11:20;;;;;;;6.82;3.90;;;18.10;99.90;;;;;;4928737;27;44738;-58
2023/09/27 05:13:50;;;;;;;6.82;4.05;;;18.20;99.90;;;;;;4923363;27;45970;-58
2023/09/27 05:16:20;;;;;;;8.73;3.90;;;18.20;99.90;;;;;;4905423;27;46560;-58
2023/09/27 05:18:50;;;;;;;5.10;3.63;;;18.20;99.90;;;;;;4921135;27;44915;-58
2023/09/27 05:21:29;;;;;;;7.15;3.70;;;18.30;99.90;;;;;;4920080;27;45305;-57
2023/09/27 05:23:56;;;;;;;5.25;3.55;;;18.20;99.90;;;;;;4896263;27;45292;-57
2023/09/27 05:26:29;;;;;;;8.70;3.85;;;18.30;99.90;;;;;;4898234;27;45182;-57
2023/09/27 05:29:15;;;;;;;9.00;3.88;;;18.40;99.90;;;;;;4932798;27;45056;-58
2023/09/27 05:32:04;;;;;;;6.18;4.07;;;18.30;99.30;;;;;;4923053;27;45211;-57
2023/09/27 05:34:34;;;;;;;7.50;4.07;;;18.30;99.90;;;;;;4889773;27;45388;-58
2023/09/27 05:37:04;;;;;;;7.95;3.40;;;18.30;99.90;;;;;;4940366;27;46612;-58
2023/09/27 05:39:46;;;;;;;6.70;3.90;;;18.50;99.80;;;;;;4936657;27;44794;-58
2023/09/27 05:42:15;;;;;;;5.82;3.80;;;18.60;99.60;;;;;;4914461;27;44843;-58
2023/09/27 05:44:45;;;;;;;6.68;3.45;;;18.50;99.80;;;;;;4922972;27;45077;-57
2023/09/27 05:47:12;;;;;;;7.78;4.82;;;18.40;99.80;;;;;;4894678;27;45458;-57
2023/09/27 05:49:40;;;;;;;8.73;4.10;;;18.40;99.10;;;;;;4909387;27;44897;-57
2023/09/27 05:52:12;;;;;;;5.47;4.22;;;18.10;99.90;;;;;;4899325;27;45021;-57
2023/09/27 05:55:06;;;;;;;12.25;4.97;;;18.00;99.90;;;;;;4908548;27;44820;-57
2023/09/27 05:57:38;;;;;;;8.68;4.65;;;18.00;99.90;;;;;;4905857;27;47142;-57
2023/09/27 06:00:22;;;;;;;7.13;4.40;;;18.00;99.90;;;;;;4917226;27;44848;-57
2023/09/27 06:02:48;;;;;;;11.40;4.57;;;18.00;99.90;;;;;;4892504;27;44951;-57
2023/09/27 06:05:27;;;;;;;6.93;4.55;;;18.00;99.90;;;;;;4930276;27;45035;-57
2023/09/27 06:07:55;;;;;;;5.15;3.67;;;18.20;99.90;;;;;;4908388;27;46772;-57
2023/09/27 06:10:28;;;;;;;7.85;3.42;;;18.50;99.90;;;;;;4898350;27;44744;-57
2023/09/27 06:13:11;;;;;;;4.60;3.30;;;18.60;99.90;;;;;;4942342;27;45106;-57
2023/09/27 06:15:41;;;;;;;6.03;3.40;;;18.80;99.00;;;;;;4908278;27;45403;-57
2023/09/27 06:18:09;;;;;;;5.57;3.35;;;18.70;99.60;;;;;;4871629;27;46784;-57
2023/09/27 06:21:09;;;;;;;8.05;3.30;;;18.70;99.90;;;;;;4905270;27;44916;-57
2023/09/27 06:23:53;;;;;;;7.30;3.63;;;18.80;99.20;;;;;;4878837;27;44917;-57
2023/09/27 06:26:23;;;;;;;4.75;3.55;;;18.70;99.60;;;;;;4874931;27;45158;-57
2023/09/27 06:29:07;;;;;;;8.93;3.70;;;18.90;99.80;;;;;;4926283;27;46070;-57
2023/09/27 06:31:47;;;;;;;4.95;2.90;;;18.80;99.00;;;;;;4972510;27;44682;-57
2023/09/27 06:34:47;;;;;;;6.20;2.47;;;18.70;99.90;;;;;;4960457;27;44755;-57
2023/09/27 06:37:37;;;;;;;7.75;3.63;;;19.00;99.90;;;;;;4926663;27;45087;-57
2023/09/27 06:40:07;;;;;;;5.90;3.47;;;19.10;99.70;;;;;;4922748;27;46202;-57
2023/09/27 06:42:38;;;;;;;5.45;3.47;;;19.00;99.00;;;;;;4920231;27;44590;-57
2023/09/27 06:45:10;;;;;;;4.80;2.78;;;19.10;99.40;;;;;;4884187;27;45231;-57
2023/09/27 06:47:53;;;;;;;4.50;2.72;;;19.20;99.90;;;;;;4907066;27;44821;-57
2023/09/27 06:50:59;;;;;;;5.80;3.10;;;19.40;99.50;;;;;;4987444;27;46387;-57
2023/09/27 06:53:38;;;;;;;5.25;3.05;;;19.30;99.90;;;;;;4889521;28;44832;-57
2023/09/27 06:56:06;;;;;;;4.03;2.92;;;19.30;99.50;;;;;;4924915;27;44791;-57
2023/09/27 06:58:35;;;;;;;4.93;2.95;;;19.40;99.40;;;;;;4897911;27;45706;-57
2023/09/27 07:04:23;;;;;;;4.50;2.53;;;19.50;98.50;;;;;;5239282;22;45237;-56
2023/09/27 07:07:13;;;;;;;5.65;3.95;;;19.50;99.70;;;;;;4825903;28;44931;-56
2023/09/27 07:09:41;;;;;;;5.60;2.63;;;19.50;98.50;;;;;;4782091;28;45543;-57
2023/09/27 07:12:30;;;;;;;3.05;2.40;;;19.60;99.40;;;;;;4798220;28;45973;-56
2023/09/27 07:14:57;;;;;;;4.72;3.10;;;19.80;99.10;;;;;;4814569;28;45189;-56
2023/09/27 07:17:50;;;;;;;5.00;2.88;;;20.00;98.20;;;;;;4800858;28;45432;-57
2023/09/27 07:20:46;;;;;;;4.13;2.45;;;19.90;98.00;;;;;;4826369;28;45587;-56
2023/09/27 07:23:15;;;;;;;5.13;2.10;;;20.10;97.50;;;;;;4783326;28;45652;-56
2023/09/27 07:26:31;;;;;;;3.90;2.25;;;20.20;98.20;;;;;;4782208;28;45834;-57
2023/09/27 07:29:00;;;;;;;3.30;2.05;;;20.30;97.80;;;;;;4788785;28;45369;-56
2023/09/27 07:31:29;;;;;;;3.53;2.55;;;20.30;96.40;;;;;;4804849;28;45179;-56
2023/09/27 07:34:31;;;;;;;4.88;2.40;;;20.10;97.60;;;;;;4801628;28;47252;-56
2023/09/27 07:37:29;;;;;;;3.75;2.78;;;20.00;98.30;;;;;;4790874;28;45263;-57
2023/09/27 07:40:17;;;;;;;2.88;2.28;;;19.80;97.50;;;;;;4815187;28;45587;-56
2023/09/27 07:43:22;;;;;;;2.78;2.28;;;19.40;99.70;;;;;;4806245;28;45494;-56
2023/09/27 07:45:49;;;;;;;8.23;4.18;;;19.50;99.90;;;;;;4789076;28;47543;-56
2023/09/27 07:48:21;;;;;;;7.32;3.72;;;19.60;97.70;;;;;;4806591;28;45384;-57
2023/09/27 07:51:18;;;;;;;5.30;2.95;;;19.50;98.50;;;;;;4773363;28;45007;-56
2023/09/27 07:53:53;;;;;;;4.43;3.42;;;19.30;99.90;;;;;;4807863;28;45484;-56
2023/09/27 07:56:28;;;;;;;4.30;2.58;;;19.40;99.40;;;;;;4791928;28;47951;-56
2023/09/27 07:59:19;;;;;;;3.55;2.55;;;19.50;99.90;;;;;;4799796;28;45644;-56
2023/09/27 08:02:09;;;;;;;4.55;2.63;;;19.70;99.90;;;;;;4786397;28;45187;-57
2023/09/27 08:08:23;;;;;;;4.60;2.38;;;19.60;99.50;;;;;;4746191;28;45790;-56
2023/09/27 08:11:14;;;;;;;6.22;4.15;;;19.80;99.40;;;;;;4800129;28;45630;-56
2023/09/27 08:13:41;;;;;;;5.72;3.70;;;19.70;99.70;;;;;;4794726;28;45501;-56
2023/09/27 08:16:12;;;;;;;7.80;3.88;;;19.60;99.50;;;;;;4796405;28;44911;-57
2023/09/27 08:19:07;;;;;;;5.25;2.83;;;19.60;99.20;;;;;;4789402;28;45509;-56
2023/09/27 08:21:34;;;;;;;4.10;2.50;;;19.70;99.80;;;;;;4779950;28;45395;-56
2023/09/27 08:24:21;;;;;;;3.83;2.42;;;19.90;99.60;;;;;;4801614;28;45546;-56
2023/09/27 08:27:07;;;;;;;6.97;3.22;;;20.00;98.90;;;;;;4800560;28;45469;-56
2023/09/27 08:29:56;;;;;;;12.25;4.30;;;19.80;99.20;;;;;;4807402;28;46910;-56
2023/09/27 08:32:34;;;;;;;9.73;4.90;;;19.70;99.30;;;;;;4806128;28;45249;-56
2023/09/27 08:35:02;;;;;;;7.10;4.15;;;19.50;99.30;;;;;;4819765;28;45198;-56
2023/09/27 08:37:51;;;;;;;6.05;3.53;;;19.30;99.90;;;;;;4824203;28;45264;-56
2023/09/27 08:40:20;;;;;;;4.80;2.95;;;19.50;99.90;;;;;;4784926;28;46346;-57
2023/09/27 08:43:03;;;;;;;6.47;3.53;;;19.70;99.90;;;;;;4804951;28;45393;-56
2023/09/27 08:49:17;;;;;;;9.30;4.20;;;19.60;99.60;;;;;;4809313;28;45264;-56
2023/09/27 08:52:09;;;;;;;4.30;2.75;;;19.50;99.90;;;;;;4792061;28;45181;-56
2023/09/27 08:54:55;;;;;;;7.65;4.70;;;19.60;99.90;;;;;;4796225;28;44945;-56
2023/09/27 08:57:52;;;;;;;6.75;3.38;;;19.60;99.90;;;;;;4792455;28;45235;-56
2023/09/27 09:00:26;;;;;;;3.22;2.72;;;19.70;99.90;;;;;;4782246;28;45414;-56
2023/09/27 09:03:31;;;;;;;4.43;2.40;;;20.20;99.70;;;;;;4761491;28;48117;-56
2023/09/27 09:06:12;;;;;;;4.82;2.70;;;20.50;97.40;;;;;;4780481;28;45391;-56
2023/09/27 09:09:11;;;;;;;7.05;3.05;;;20.70;96.70;;;;;;4798501;28;45544;-56
2023/09/27 09:11:58;;;;;;;4.85;2.72;;;20.80;95.90;;;;;;4794597;28;45269;-56
2023/09/27 09:14:39;;;;;;;4.13;2.90;;;20.80;95.20;;;;;;4800275;28;46260;-58
2023/09/27 09:17:42;;;;;;;7.22;3.40;;;20.80;95.10;;;;;;4797560;28;45141;-58
2023/09/27 09:20:32;;;;;;;6.95;3.17;;;20.70;94.80;;;;;;4805746;28;45532;-58
2023/09/27 09:23:33;;;;;;;6.57;3.20;;;20.70;95.20;;;;;;4833792;28;45522;-57
2023/09/27 09:26:14;;;;;;;6.20;3.10;;;20.40;95.80;;;;;;4802671;28;45645;-57
2023/09/27 09:29:05;;;;;;;6.22;3.45;;;20.40;96.30;;;;;;4842273;28;45240;-57
2023/09/27 09:31:35;;;;;;;3.72;2.55;;;20.20;96.80;;;;;;4820821;28;45330;-57
2023/09/27 09:34:18;;;;;;;3.95;2.55;;;20.20;97.20;;;;;;4824207;28;44891;-57
2023/09/27 09:37:25;;;;;;;4.68;3.03;;;20.30;97.20;;;;;;4826315;28;46515;-57
2023/09/27 09:40:44;;;;;;;5.53;2.80;;;20.30;97.40;;;;;;4789876;28;45261;-57
2023/09/27 09:43:35;;;;;;;3.58;2.30;;;20.30;97.40;;;;;;4780661;28;44931;-57
2023/09/27 09:46:03;;;;;;;4.47;2.97;;;20.30;97.50;;;;;;4810181;28;45133;-57
2023/09/27 09:49:00;;;;;;;5.22;3.03;;;20.20;98.20;;;;;;4778188;28;46014;-57
2023/09/27 09:51:27;;;;;;;6.20;2.92;;;20.20;97.50;;;;;;4786479;28;45149;-56
2023/09/27 09:54:11;;;;;;;2.88;2.10;;;20.10;98.00;;;;;;4817895;28;45296;-57
2023/09/27 09:57:01;;;;;;;3.95;2.55;;;20.10;98.30;;;;;;4838298;28;45068;-56
2023/09/27 09:59:47;;;;;;;6.00;3.15;;;20.30;98.10;;;;;;4782652;28;45506;-57
2023/09/27 10:02:43;;;;;;;7.55;3.20;;;20.20;97.60;;;;;;4831340;28;45244;-56
2023/09/27 10:05:13;;;;;;;2.70;1.98;;;20.20;98.20;;;;;;4811502;28;45285;-57
2023/09/27 10:07:43;;;;;;;4.55;2.03;;;20.30;98.20;;;;;;4793746;28;45149;-56
2023/09/27 10:10:24;;;;;;;5.55;2.80;;;20.40;98.20;;;;;;4793823;28;46055;-56
2023/09/27 10:13:05;;;;;;;1.98;1.45;;;20.40;97.60;;;;;;4826347;28;45390;-57
2023/09/27 10:15:40;;;;;;;4.47;2.25;;;20.40;98.10;;;;;;4810463;28;45428;-56
2023/09/27 10:18:29;;;;;;;3.40;1.70;;;20.40;98.20;;;;;;4813480;28;45225;-56
2023/09/27 10:21:15;;;;;;;3.97;2.55;;;20.40;98.10;;;;;;4808144;28;47002;-57
2023/09/27 10:24:07;;;;;;;4.57;1.90;;;20.50;97.50;;;;;;4787383;28;44841;-56
2023/09/27 10:27:15;;;;;;;2.30;1.77;;;20.50;98.20;;;;;;4800225;28;45484;-56
2023/09/27 10:30:00;;;;;;;3.58;2.03;;;20.60;97.20;;;;;;4798875;28;44964;-56
2023/09/27 10:32:29;;;;;;;2.00;1.60;;;20.60;97.90;;;;;;4795283;28;46892;-56
2023/09/27 10:35:27;;;;;;;2.95;1.88;;;20.60;97.80;;;;;;4769072;28;45421;-56
2023/09/27 10:38:00;;;;;;;3.47;2.10;;;20.60;97.40;;;;;;4712129;28;45059;-56
2023/09/27 10:40:48;;;;;;;4.85;2.70;;;20.60;96.90;;;;;;4796162;28;45595;-56
2023/09/27 10:43:46;;;;;;;2.47;1.83;;;20.60;97.60;;;;;;4800012;28;46457;-56
2023/09/27 10:46:45;;;;;;;4.25;2.28;;;20.60;96.40;;;;;;4785176;28;45098;-57
2023/09/27 10:49:27;;;;;;;2.80;1.65;;;20.60;96.80;;;;;;4778202;28;45491;-57
2023/09/27 10:52:21;;;;;;;1.85;1.45;;;20.70;97.40;;;;;;4804440;28;45057;-57
2023/09/27 10:54:50;;;;;;;4.68;1.90;;;20.70;96.40;;;;;;4823386;28;46475;-57
2023/09/27 10:57:49;;;;;;;6.53;2.67;;;20.70;96.10;;;;;;4796603;28;45356;-57
2023/09/27 11:00:18;;;;;;;3.75;1.88;;;20.70;96.50;;;;;;4801930;28;45378;-57
2023/09/27 11:07:17;;;;;;;4.05;1.75;;;20.70;97.10;;;;;;4750090;28;45508;-57
2023/09/27 11:09:48;;;;;;;2.20;1.60;;;20.70;97.30;;;;;;4819519;28;45291;-57
2023/09/27 11:12:41;;;;;;;2.28;1.50;;;20.70;97.70;;;;;;4774875;28;45132;-56
2023/09/27 11:15:31;;;;;;;10.55;2.45;;;20.80;97.50;;;;;;4821489;28;45333;-56
2023/09/27 11:17:58;;;;;;;2.75;1.40;;;20.70;97.40;;;;;;4790121;28;46628;-57
2023/09/27 11:23:26;;;;;;;3.45;1.80;;;20.70;98.00;;;;;;4760935;28;45412;-56
2023/09/27 11:26:21;;;;;;;1.60;1.42;;;20.70;98.00;;;;;;4821336;28;45025;-56
2023/09/27 11:29:09;;;;;;;1.85;1.38;;;20.70;97.50;;;;;;4741604;28;46587;-57
2023/09/27 11:31:58;;;;;;;2.35;1.58;;;20.70;98.20;;;;;;4809844;28;45442;-56
2023/09/27 11:34:39;;;;;;;2.45;1.50;;;20.70;98.30;;;;;;4797449;28;45282;-56
2023/09/27 11:37:43;;;;;;;3.30;1.85;;;20.70;98.10;;;;;;4782990;28;45320;-56
2023/09/27 11:40:13;;;;;;;3.13;1.40;;;20.80;98.00;;;;;;4801788;28;45298;-56
2023/09/27 11:42:43;;;;;;;1.50;1.30;;;20.70;98.10;;;;;;4798860;28;45251;-57
2023/09/27 11:46:03;;;;;;;3.70;2.28;;;20.70;98.10;;;;;;4800564;28;45181;-57
2023/09/27 11:48:35;;;;;;;2.58;1.80;;;20.80;97.60;;;;;;4770987;28;45483;-57
2023/09/27 11:51:30;;;;;;;1.35;1.17;;;20.70;97.20;;;;;;4862882;28;46661;-56
2023/09/27 11:54:15;;;;;;;2.17;1.40;;;20.80;98.00;;;;;;4798416;28;45783;-56
2023/09/27 11:56:43;;;;;;;2.38;1.45;;;20.70;97.80;;;;;;4788071;28;45356;-56
2023/09/27 11:59:18;;;;;;;3.85;2.22;;;20.80;97.60;;;;;;4850328;28;45447;-56
2023/09/27 12:02:21;;;;;;;3.55;2.08;;;20.80;97.20;;;;;;4794641;28;46108;-54
2023/09/27 12:05:06;;;;;;;2.25;1.58;;;20.80;97.40;;;;;;4765225;28;45757;-60
2023/09/27 12:07:37;;;;;;;2.90;1.55;;;20.80;96.80;;;;;;4809276;28;45320;-58
2023/09/27 12:10:08;;;;;;;4.40;2.20;;;20.90;97.50;;;;;;4778405;28;44914;-57
2023/09/27 12:13:07;;;;;;;3.53;1.83;;;20.90;95.20;;;;;;4789314;28;47220;-56
2023/09/27 12:15:38;;;;;;;2.92;1.55;;;21.10;95.30;;;;;;4794284;28;45234;-57
2023/09/27 12:18:32;;;;;;;2.28;1.40;;;21.00;97.20;;;;;;4839279;28;45634;-58
2023/09/27 12:21:09;;;;;;;2.00;1.45;;;20.90;96.60;;;;;;4798932;28;45126;-57
2023/09/27 12:23:37;;;;;;;3.75;1.98;;;20.90;96.70;;;;;;4795457;28;45575;-58
2023/09/27 12:26:28;;;;;;;5.07;1.35;;;21.00;97.10;;;;;;4788858;28;45081;-58
2023/09/27 12:29:20;;;;;;;2.75;1.33;;;20.90;97.40;;;;;;4791929;28;45461;-58
2023/09/27 12:32:12;;;;;;;4.95;1.83;;;20.90;97.20;;;;;;4817330;28;45328;-57
2023/09/27 12:34:51;;;;;;;5.07;1.90;;;20.90;97.20;;;;;;4777332;28;46484;-57
2023/09/27 12:37:44;;;;;;;1.35;1.20;;;21.20;95.60;;;;;;4800340;28;45609;-57
2023/09/27 12:40:12;;;;;;;5.10;1.50;;;21.10;97.20;;;;;;4797394;28;45314;-58
2023/09/27 12:42:39;;;;;;;1.60;1.30;;;21.00;97.20;;;;;;4785010;28;45668;-57
2023/09/27 12:45:47;;;;;;;3.50;1.52;;;21.00;97.60;;;;;;4810538;28;46549;-57
2023/09/27 12:51:22;;;;;;;2.30;1.30;;;20.90;97.60;;;;;;4777090;28;45503;-57
2023/09/27 12:53:50;;;;;;;1.40;0.95;;;21.00;97.50;;;;;;4788242;28;45557;-57
2023/09/27 12:56:46;;;;;;;2.20;1.40;;;21.00;97.20;;;;;;4804407;28;45198;-57
2023/09/27 12:59:42;;;;;;;3.05;1.67;;;21.00;97.20;;;;;;4781086;28;45676;-57
2023/09/27 13:02:47;;;;;;;1.48;1.30;;;21.00;97.10;;;;;;4769493;28;45585;-57
2023/09/27 13:05:17;;;;;;;4.35;1.60;;;20.90;97.90;;;;;;4805811;28;45067;-57
2023/09/27 13:08:26;;;;;;;1.98;1.52;;;21.00;96.50;;;;;;4771102;28;45787;-57
2023/09/27 13:11:19;;;;;;;2.60;1.30;;;20.90;97.60;;;;;;4770585;28;45376;-56
2023/09/27 13:17:44;;;;;;;4.70;1.20;;;21.00;95.60;;;;;;4799626;28;45285;-56
2023/09/27 13:20:55;;;;;;;2.30;1.33;;;21.00;97.10;;;;;;4798121;28;46315;-56
2023/09/27 13:23:57;;;;;;;2.97;1.48;;;21.00;97.20;;;;;;4804817;28;45347;-57
2023/09/27 13:26:25;;;;;;;6.93;1.88;;;21.00;96.90;;;;;;4773670;28;45352;-57
2023/09/27 13:29:11;;;;;;;2.50;1.80;;;21.10;96.80;;;;;;4803617;28;45055;-57
2023/09/27 13:31:37;;;;;;;1.92;1.00;;;21.10;96.50;;;;;;4785348;28;47119;-57
2023/09/27 13:34:05;;;;;;;1.67;1.15;;;21.10;97.00;;;;;;4773047;28;45333;-57
2023/09/27 13:40:00;;;;;;;1.50;1.20;;;21.00;97.50;;;;;;4782744;28;45268;-57
2023/09/27 13:42:41;;;;;;;4.22;1.73;;;20.90;98.10;;;;;;4799156;28;45851;-56
2023/09/27 13:45:12;;;;;;;1.35;1.10;;;20.90;97.80;;;;;;4779366;28;45459;-57
2023/09/27 13:48:18;;;;;;;2.15;1.20;;;21.00;97.30;;;;;;4762943;28;46026;-57
2023/09/27 13:50:45;;;;;;;1.42;1.05;;;21.00;97.40;;;;;;4769869;28;45147;-56
2023/09/27 13:53:38;;;;;;;2.00;1.02;;;21.00;97.30;;;;;;4799808;28;48012;-57
2023/09/27 13:59:26;;;;;;;4.82;1.80;;;21.80;95.70;;;;;;4726283;28;45595;-57
2023/09/27 14:02:14;;;;;;;2.33;1.10;;;21.80;94.10;;;;;;4776482;28;45616;-57
2023/09/27 14:05:05;;;;;;;2.75;1.27;;;21.40;96.10;;;;;;4771876;28;46705;-57
2023/09/27 14:07:32;;;;;;;5.20;1.92;;;21.20;96.60;;;;;;4797790;28;45344;-57
2023/09/27 14:10:03;;;;;;;3.85;1.40;;;21.10;95.50;;;;;;4783798;28;45422;-57
2023/09/27 14:12:31;;;;;;;1.45;1.10;;;21.10;96.50;;;;;;4783878;28;45452;-57
2023/09/27 14:15:27;;;;;;;4.03;1.65;;;21.10;96.80;;;;;;4772739;28;46297;-57
2023/09/27 14:18:13;;;;;;;3.08;1.42;;;21.10;94.60;;;;;;4777816;28;45073;-56
2023/09/27 14:20:40;;;;;;;2.67;0.90;;;21.10;95.10;;;;;;4797553;28;45507;-57
2023/09/27 14:23:27;;;;;;;1.23;1.10;;;21.10;96.70;;;;;;4774276;28;45574;-56
2023/09/27 14:26:05;;;;;;;2.10;1.20;;;21.10;97.00;;;;;;4797183;28;45744;-57
2023/09/27 14:28:50;;;;;;;1.77;1.23;;;21.40;95.60;;;;;;4784105;28;45255;-56
2023/09/27 14:31:39;;;;;;;3.40;1.80;;;21.50;95.20;;;;;;4793632;28;45936;-56
2023/09/27 14:34:23;;;;;;;3.70;1.77;;;21.50;94.60;;;;;;4806919;28;44987;-56